createdAt,value
2022-11-10T00:00:21.689Z,101351.81
2022-11-10T00:02:50.977Z,101345.66
2022-11-10T00:05:18.999Z,101338.34
2022-11-10T00:07:46.994Z,101344.06
2022-11-10T00:10:15.565Z,101345.69
2022-11-10T00:12:43.497Z,101339.72
2022-11-10T00:15:29.861Z,101337.72
2022-11-10T00:17:59.140Z,101340.22
2022-11-10T00:20:27.084Z,101337.94
2022-11-10T00:22:56.229Z,101339.69
2022-11-10T00:25:24.892Z,101339.50
2022-11-10T00:27:52.795Z,101333.53
2022-11-10T00:30:20.765Z,101333.94
2022-11-10T00:32:49.304Z,101333.69
2022-11-10T00:35:18.595Z,101340.66
2022-11-10T00:37:46.534Z,101337.47
2022-11-10T00:40:14.466Z,101338.59
2022-11-10T00:42:42.402Z,101333.34
2022-11-10T00:45:11.400Z,101328.25
2022-11-10T00:47:39.338Z,101331.97
2022-11-10T00:50:08.430Z,101330.72
2022-11-10T00:52:37.771Z,101324.69
2022-11-10T00:55:06.519Z,101330.56
2022-11-10T00:57:34.456Z,101324.28
2022-11-10T01:00:02.415Z,101331.34
2022-11-10T01:02:30.388Z,101331.53
2022-11-10T01:04:58.317Z,101322.16
2022-11-10T01:07:26.231Z,101326.69
2022-11-10T01:09:55.535Z,101323.91
2022-11-10T01:12:23.454Z,101329.22
2022-11-10T01:14:51.389Z,101327.53
2022-11-10T01:17:19.298Z,101328.75
2022-11-10T01:19:47.246Z,101330.25
2022-11-10T01:22:15.328Z,101314.22
2022-11-10T01:24:43.253Z,101301.34
2022-11-10T01:27:12.594Z,101327.50
2022-11-10T01:29:40.505Z,101323.75
2022-11-10T01:32:08.675Z,101320.53
2022-11-10T01:34:36.650Z,101321.56
2022-11-10T01:37:04.848Z,101323.69
2022-11-10T01:39:32.772Z,101326.63
2022-11-10T01:42:00.702Z,101324.38
2022-11-10T01:44:30.007Z,101323.69
2022-11-10T01:46:57.951Z,101329.16
2022-11-10T01:49:28.322Z,101320.06
2022-11-10T01:51:59.276Z,101312.00
2022-11-10T01:54:30.478Z,101316.34
2022-11-10T01:57:02.157Z,101310.66
2022-11-10T01:59:35.316Z,101313.28
2022-11-10T02:02:09.751Z,101315.34
2022-11-10T02:04:38.369Z,101305.34
2022-11-10T02:07:07.191Z,101302.50
2022-11-10T02:09:35.243Z,101307.50
2022-11-10T02:12:03.165Z,101305.19
2022-11-10T02:14:32.527Z,101305.97
2022-11-10T02:17:00.567Z,101294.63
2022-11-10T02:19:28.907Z,101300.00
2022-11-10T02:21:58.257Z,101311.88
2022-11-10T02:24:26.187Z,101310.06
2022-11-10T02:26:56.491Z,101311.50
2022-11-10T02:29:24.960Z,101304.03
2022-11-10T02:31:53.200Z,101305.56
2022-11-10T02:34:21.141Z,101309.91
2022-11-10T02:36:49.058Z,101315.09
2022-11-10T02:39:18.372Z,101316.66
2022-11-10T02:41:46.324Z,101315.94
2022-11-10T02:44:14.353Z,101315.25
2022-11-10T02:46:42.397Z,101333.28
2022-11-10T02:49:10.332Z,101325.72
2022-11-10T02:51:38.316Z,101332.03
2022-11-10T02:54:06.329Z,101338.78
2022-11-10T02:56:36.457Z,101333.38
2022-11-10T02:59:04.983Z,101339.25
2022-11-10T03:01:32.988Z,101335.97
2022-11-10T03:04:00.968Z,101339.38
2022-11-10T03:06:28.995Z,101342.72
2022-11-10T03:08:56.901Z,101344.72
2022-11-10T03:11:28.070Z,101352.75
2022-11-10T03:14:02.553Z,101347.66
2022-11-10T03:16:31.008Z,101349.47
2022-11-10T03:18:58.934Z,101345.38
2022-11-10T03:21:26.835Z,101344.72
2022-11-10T03:23:54.762Z,101344.44
2022-11-10T03:26:23.180Z,101351.94
2022-11-10T03:28:51.119Z,101347.09
2022-11-10T03:31:20.466Z,101345.38
2022-11-10T03:33:48.372Z,101346.13
2022-11-10T03:36:16.292Z,101352.34
2022-11-10T03:38:44.259Z,101351.53
2022-11-10T03:41:19.361Z,101352.34
2022-11-10T03:43:48.407Z,101348.13
2022-11-10T03:46:16.399Z,101351.44
2022-11-10T03:48:51.877Z,101344.53
2022-11-10T03:51:21.578Z,101341.00
2022-11-10T03:53:49.634Z,101345.59
2022-11-10T03:56:17.852Z,101342.75
2022-11-10T03:58:45.780Z,101350.00
2022-11-10T04:01:13.685Z,101352.16
2022-11-10T04:03:41.626Z,101345.38
2022-11-10T04:06:30.215Z,101348.72
2022-11-10T04:09:01.155Z,101354.19
2022-11-10T04:11:47.828Z,101347.63
2022-11-10T04:14:33.696Z,101358.28
2022-11-10T04:17:02.531Z,101357.31
2022-11-10T04:19:30.724Z,101355.31
2022-11-10T04:22:00.057Z,101357.06
2022-11-10T04:24:28.052Z,101360.91
2022-11-10T04:26:55.953Z,101361.09
2022-11-10T04:29:23.892Z,101348.13
2022-11-10T04:31:51.802Z,101356.31
2022-11-10T04:34:19.690Z,101361.00
2022-11-10T04:36:47.593Z,101362.94
2022-11-10T04:39:16.889Z,101360.09
2022-11-10T04:41:44.816Z,101370.78
2022-11-10T04:44:12.749Z,101369.47
2022-11-10T04:46:42.712Z,101375.75
2022-11-10T04:49:12.138Z,101372.84
2022-11-10T04:51:40.922Z,101377.19
2022-11-10T04:54:09.304Z,101364.50
2022-11-10T04:56:40.308Z,101377.31
2022-11-10T04:59:08.225Z,101372.34
2022-11-10T05:01:36.142Z,101379.22
2022-11-10T05:04:05.681Z,101374.22
2022-11-10T05:06:33.711Z,101368.72
2022-11-10T05:09:01.662Z,101378.44
2022-11-10T05:11:29.587Z,101384.00
2022-11-10T05:13:58.878Z,101385.63
2022-11-10T05:16:26.860Z,101384.78
2022-11-10T05:18:56.117Z,101394.34
2022-11-10T05:21:24.036Z,101395.31
2022-11-10T05:23:51.945Z,101396.19
2022-11-10T05:26:20.248Z,101400.09
2022-11-10T05:28:48.221Z,101410.81
2022-11-10T05:31:17.519Z,101408.13
2022-11-10T05:33:45.433Z,101412.41
2022-11-10T05:36:13.347Z,101415.72
2022-11-10T05:38:43.688Z,101420.00
2022-11-10T05:41:12.200Z,101412.28
2022-11-10T05:43:40.310Z,101417.25
2022-11-10T05:46:08.226Z,101417.94
2022-11-10T05:48:37.577Z,101419.56
2022-11-10T05:51:05.722Z,101421.16
2022-11-10T05:53:33.665Z,101433.78
2022-11-10T05:56:01.609Z,101434.72
2022-11-10T05:58:29.639Z,101436.94
2022-11-10T06:00:57.713Z,101442.84
2022-11-10T06:03:26.217Z,101441.44
2022-11-10T06:05:55.869Z,101450.56
2022-11-10T06:08:23.901Z,101427.34
2022-11-10T06:10:51.901Z,101453.28
2022-11-10T06:13:20.113Z,101452.16
2022-11-10T06:15:50.518Z,101457.84
2022-11-10T06:18:18.781Z,101466.13
2022-11-10T06:20:47.252Z,101461.72
2022-11-10T06:23:16.670Z,101467.09
2022-11-10T06:25:44.840Z,101471.84
2022-11-10T06:28:12.952Z,101475.72
2022-11-10T06:30:40.954Z,101470.16
2022-11-10T06:33:08.894Z,101471.94
2022-11-10T06:35:36.830Z,101474.78
2022-11-10T06:38:07.506Z,101480.09
2022-11-10T06:40:36.809Z,101482.94
2022-11-10T06:43:04.920Z,101490.22
2022-11-10T06:45:32.889Z,101486.31
2022-11-10T06:48:02.541Z,101486.69
2022-11-10T06:50:30.657Z,101490.44
2022-11-10T06:52:59.589Z,101482.16
2022-11-10T06:55:28.134Z,101485.22
2022-11-10T06:57:57.682Z,101487.09
2022-11-10T07:00:26.791Z,101486.06
2022-11-10T07:03:02.581Z,101480.13
2022-11-10T07:05:30.816Z,101457.53
2022-11-10T07:08:03.677Z,101487.50
2022-11-10T07:10:32.024Z,101480.81
2022-11-10T07:13:02.826Z,101483.28
2022-11-10T07:15:30.941Z,101489.06
2022-11-10T07:17:58.890Z,101482.25
2022-11-10T07:20:28.564Z,101490.97
2022-11-10T07:23:00.544Z,101486.69
2022-11-10T07:25:29.669Z,101488.84
2022-11-10T07:27:58.799Z,101484.06
2022-11-10T07:30:28.791Z,101492.19
2022-11-10T07:33:01.126Z,101488.41
2022-11-10T07:35:29.740Z,101492.78
2022-11-10T07:37:57.945Z,101489.69
2022-11-10T07:40:25.897Z,101494.34
2022-11-10T07:42:53.826Z,101490.59
2022-11-10T07:45:21.825Z,101498.22
2022-11-10T07:47:51.513Z,101493.72
2022-11-10T07:50:19.949Z,101494.16
2022-11-10T07:52:47.843Z,101493.50
2022-11-10T07:55:15.883Z,101500.03
2022-11-10T07:57:43.811Z,101497.84
2022-11-10T08:00:13.695Z,101492.16
2022-11-10T08:02:41.653Z,101488.34
2022-11-10T08:05:11.161Z,101498.41
2022-11-10T08:07:39.171Z,101499.88
2022-11-10T08:10:08.793Z,101489.34
2022-11-10T08:12:36.749Z,101492.88
2022-11-10T08:15:05.133Z,101499.78
2022-11-10T08:17:33.064Z,101504.81
2022-11-10T08:20:00.973Z,101505.59
2022-11-10T08:22:30.262Z,101510.88
2022-11-10T08:24:58.210Z,101503.94
2022-11-10T08:27:26.156Z,101502.38
2022-11-10T08:29:54.087Z,101509.56
2022-11-10T08:32:22.422Z,101506.44
2022-11-10T08:34:50.481Z,101504.63
2022-11-10T08:37:18.385Z,101504.97
2022-11-10T08:39:47.713Z,101509.88
2022-11-10T08:42:15.652Z,101510.94
2022-11-10T08:44:43.581Z,101507.00
2022-11-10T08:47:11.498Z,101521.97
2022-11-10T08:49:39.420Z,101516.50
2022-11-10T08:52:07.359Z,101513.31
2022-11-10T08:54:35.258Z,101519.06
2022-11-10T08:57:04.577Z,101523.19
2022-11-10T08:59:32.496Z,101513.47
2022-11-10T09:02:00.458Z,101510.59
2022-11-10T09:04:28.427Z,101519.66
2022-11-10T09:06:57.922Z,101499.13
2022-11-10T09:09:27.124Z,101519.66
2022-11-10T09:11:55.052Z,101510.94
2022-11-10T09:14:24.327Z,101519.69
2022-11-10T09:16:52.246Z,101502.72
2022-11-10T09:19:20.434Z,101507.00
2022-11-10T09:21:48.403Z,101509.44
2022-11-10T09:24:16.495Z,101501.16
2022-11-10T09:26:48.201Z,101508.25
2022-11-10T09:29:16.241Z,101505.81
2022-11-10T09:31:46.301Z,101506.91
2022-11-10T09:34:14.366Z,101501.38
2022-11-10T09:36:43.043Z,101503.78
2022-11-10T09:39:10.973Z,101501.75
2022-11-10T09:41:45.102Z,101511.13
2022-11-10T09:44:17.769Z,101509.38
2022-11-10T09:46:51.361Z,101497.59
2022-11-10T09:49:34.597Z,101504.19
2022-11-10T09:52:04.317Z,101505.28
2022-11-10T09:54:40.429Z,101504.66
2022-11-10T09:57:12.608Z,101502.44
2022-11-10T09:59:40.701Z,101498.44
2022-11-10T10:02:20.772Z,101504.59
2022-11-10T10:05:05.349Z,101506.13
2022-11-10T10:07:43.367Z,101502.66
2022-11-10T10:10:17.709Z,101494.94
2022-11-10T10:13:06.910Z,101493.25
2022-11-10T10:15:45.039Z,101491.53
2022-11-10T10:18:26.981Z,101495.63
2022-11-10T10:21:12.798Z,101489.06
2022-11-10T10:24:08.975Z,101497.25
2022-11-10T10:26:41.389Z,101492.16
2022-11-10T10:29:12.272Z,101490.38
2022-11-10T10:31:43.583Z,101476.94
2022-11-10T10:34:17.653Z,101480.94
2022-11-10T10:36:45.801Z,101473.28
2022-11-10T10:39:16.304Z,101482.63
2022-11-10T10:41:47.128Z,101475.41
2022-11-10T10:44:17.083Z,101482.53
2022-11-10T10:46:48.123Z,101477.59
2022-11-10T10:49:29.606Z,101469.31
2022-11-10T10:52:07.341Z,101479.91
2022-11-10T10:54:37.116Z,101476.75
2022-11-10T10:57:15.229Z,101468.59
2022-11-10T10:59:43.171Z,101463.75
2022-11-10T11:02:26.275Z,101467.31
2022-11-10T11:05:13.755Z,101463.53
2022-11-10T11:07:42.125Z,101467.09
2022-11-10T11:10:21.101Z,101460.28
2022-11-10T11:12:49.227Z,101462.59
2022-11-10T11:15:25.873Z,101454.91
2022-11-10T11:17:59.259Z,101457.22
2022-11-10T11:20:39.324Z,101468.03
2022-11-10T11:23:19.637Z,101440.69
2022-11-10T11:25:50.068Z,101420.56
2022-11-10T11:28:28.516Z,101453.44
2022-11-10T11:31:06.954Z,101456.59
2022-11-10T11:33:44.343Z,101449.03
2022-11-10T11:36:25.244Z,101447.91
2022-11-10T11:38:59.716Z,101449.19
2022-11-10T11:41:38.563Z,101446.25
2022-11-10T11:44:31.823Z,101454.88
2022-11-10T11:47:10.486Z,101456.78
2022-11-10T11:49:54.638Z,101450.53
2022-11-10T11:52:33.396Z,101450.84
2022-11-10T11:55:19.753Z,101452.91
2022-11-10T11:58:05.654Z,101454.03
2022-11-10T12:00:46.389Z,101445.63
2022-11-10T12:03:42.815Z,101452.94
2022-11-10T12:06:24.468Z,101451.09
2022-11-10T12:09:02.123Z,101442.28
2022-11-10T12:11:44.685Z,101448.38
2022-11-10T12:14:21.928Z,101447.53
2022-11-10T12:17:04.734Z,101450.34
2022-11-10T12:19:46.483Z,101450.66
2022-11-10T12:22:26.445Z,101450.84
2022-11-10T12:25:11.684Z,101452.75
2022-11-10T12:27:44.136Z,101406.81
2022-11-10T12:30:14.371Z,101456.38
2022-11-10T12:32:47.773Z,101457.44
2022-11-10T12:35:20.121Z,101457.19
2022-11-10T12:37:53.970Z,101455.63
2022-11-10T12:40:26.908Z,101462.06
2022-11-10T12:43:00.446Z,101456.06
2022-11-10T12:45:33.389Z,101461.19
2022-11-10T12:48:02.438Z,101451.63
2022-11-10T12:50:40.827Z,101449.31
2022-11-10T12:53:15.112Z,101456.13
2022-11-10T12:55:49.551Z,101463.47
2022-11-10T12:58:17.672Z,101458.41
2022-11-10T13:00:56.115Z,101457.91
2022-11-10T13:03:32.520Z,101457.72
2022-11-10T13:06:02.511Z,101467.66
2022-11-10T13:08:34.036Z,101466.44
2022-11-10T13:11:07.610Z,101457.31
2022-11-10T13:13:45.169Z,101464.78
2022-11-10T13:16:51.299Z,101448.59
2022-11-10T13:19:50.294Z,101468.72
2022-11-10T13:22:37.331Z,101461.91
2022-11-10T13:25:42.643Z,101461.22
2022-11-10T13:28:12.901Z,101465.63
2022-11-10T13:30:43.698Z,101470.47
2022-11-10T13:33:31.885Z,101468.34
2022-11-10T13:36:00.051Z,101469.00
2022-11-10T13:38:36.851Z,101473.09
2022-11-10T13:41:23.332Z,101475.59
2022-11-10T13:43:54.466Z,101472.88
2022-11-10T13:46:32.169Z,101465.00
2022-11-10T13:49:28.908Z,101470.88
2022-11-10T13:52:06.495Z,101439.63
2022-11-10T13:54:56.694Z,101474.44
2022-11-10T13:57:30.820Z,101467.56
2022-11-10T14:00:02.570Z,101467.00
2022-11-10T14:02:51.503Z,101472.25
2022-11-10T14:05:53.018Z,101482.22
2022-11-10T14:08:25.130Z,101472.41
2022-11-10T14:10:58.669Z,101477.94
2022-11-10T14:13:33.834Z,101478.84
2022-11-10T14:16:03.573Z,101487.56
2022-11-10T14:18:41.283Z,101482.41
2022-11-10T14:21:20.865Z,101480.22
2022-11-10T14:23:52.158Z,101480.50
2022-11-10T14:26:27.000Z,101477.47
2022-11-10T14:28:54.940Z,101483.63
2022-11-10T14:31:26.985Z,101475.97
2022-11-10T14:33:57.208Z,101475.13
2022-11-10T14:36:26.404Z,101485.03
2022-11-10T14:38:54.808Z,101493.31
2022-11-10T14:41:24.049Z,101490.06
2022-11-10T14:44:03.116Z,101499.22
2022-11-10T14:46:32.461Z,101493.22
2022-11-10T14:49:01.482Z,101491.94
2022-11-10T14:51:30.845Z,101500.06
2022-11-10T14:53:59.503Z,101506.06
2022-11-10T14:56:30.489Z,101504.75
2022-11-10T14:58:59.921Z,101506.34
2022-11-10T15:01:33.738Z,101502.16
2022-11-10T15:04:05.993Z,101510.53
2022-11-10T15:06:34.958Z,101492.91
2022-11-10T15:09:14.265Z,101518.75
2022-11-10T15:11:49.522Z,101502.84
2022-11-10T15:14:33.312Z,101500.78
2022-11-10T15:17:02.540Z,101491.28
2022-11-10T15:19:33.442Z,101516.34
2022-11-10T15:22:07.900Z,101516.69
2022-11-10T15:24:35.874Z,101523.63
2022-11-10T15:27:03.815Z,101507.16
2022-11-10T15:29:32.169Z,101521.28
2022-11-10T15:32:00.107Z,101520.88
2022-11-10T15:34:41.493Z,101517.28
2022-11-10T15:37:30.503Z,101525.38
2022-11-10T15:40:29.506Z,101527.97
2022-11-10T15:43:11.434Z,101537.81
2022-11-10T15:45:40.243Z,101532.25
2022-11-10T15:48:13.400Z,101535.25
2022-11-10T15:50:43.669Z,101539.03
2022-11-10T15:53:15.557Z,101547.28
2022-11-10T15:55:44.440Z,101530.59
2022-11-10T15:58:14.968Z,101542.94
2022-11-10T16:00:42.985Z,101554.19
2022-11-10T16:03:12.504Z,101556.72
2022-11-10T16:05:42.279Z,101545.81
2022-11-10T16:08:13.943Z,101549.69
2022-11-10T16:10:42.948Z,101556.78
2022-11-10T16:13:13.666Z,101555.16
2022-11-10T16:15:42.700Z,101547.06
2022-11-10T16:18:14.045Z,101547.50
2022-11-10T16:20:43.701Z,101563.03
2022-11-10T16:23:11.620Z,101558.88
2022-11-10T16:25:40.196Z,101566.78
2022-11-10T16:28:08.504Z,101566.91
2022-11-10T16:30:36.593Z,101560.66
2022-11-10T16:33:04.652Z,101561.78
2022-11-10T16:35:32.697Z,101571.06
2022-11-10T16:38:02.026Z,101562.63
2022-11-10T16:40:29.990Z,101573.03
2022-11-10T16:42:58.041Z,101568.09
2022-11-10T16:45:30.232Z,101574.28
2022-11-10T16:47:58.965Z,101570.28
2022-11-10T16:50:33.379Z,101573.88
2022-11-10T16:53:05.593Z,101567.19
2022-11-10T16:55:33.676Z,101564.97
2022-11-10T16:58:01.619Z,101574.66
2022-11-10T17:00:29.540Z,101573.94
2022-11-10T17:03:03.673Z,101579.25
2022-11-10T17:05:31.423Z,101574.25
2022-11-10T17:08:00.169Z,101582.31
2022-11-10T17:10:29.578Z,101574.44
2022-11-10T17:12:57.500Z,101581.47
2022-11-10T17:15:25.622Z,101583.66
2022-11-10T17:17:58.848Z,101595.03
2022-11-10T17:20:35.448Z,101584.81
2022-11-10T17:23:05.161Z,101592.63
2022-11-10T17:25:37.181Z,101596.38
2022-11-10T17:28:05.405Z,101592.00
2022-11-10T17:30:33.356Z,101592.00
2022-11-10T17:33:05.661Z,101586.81
2022-11-10T17:35:40.086Z,101589.66
2022-11-10T17:38:12.777Z,101557.91
2022-11-10T17:40:43.397Z,101593.59
2022-11-10T17:43:13.292Z,101591.16
2022-11-10T17:45:41.413Z,101587.06
2022-11-10T17:48:10.123Z,101589.88
2022-11-10T17:50:40.092Z,101586.44
2022-11-10T17:53:16.586Z,101584.16
2022-11-10T17:55:46.350Z,101586.56
2022-11-10T17:58:17.953Z,101587.47
2022-11-10T18:00:46.715Z,101586.00
2022-11-10T18:03:16.094Z,101591.84
2022-11-10T18:05:44.619Z,101598.91
2022-11-10T18:08:13.044Z,101600.81
2022-11-10T18:10:43.281Z,101606.88
2022-11-10T18:13:13.043Z,101606.03
2022-11-10T18:15:43.241Z,101605.41
2022-11-10T18:18:13.253Z,101607.41
2022-11-10T18:20:41.623Z,101606.91
2022-11-10T18:23:12.433Z,101603.66
2022-11-10T18:25:41.539Z,101608.97
2022-11-10T18:28:13.334Z,101617.31
2022-11-10T18:30:43.734Z,101610.44
2022-11-10T18:33:12.908Z,101616.25
2022-11-10T18:35:41.692Z,101617.94
2022-11-10T18:38:13.300Z,101625.69
2022-11-10T18:40:41.246Z,101625.41
2022-11-10T18:43:09.191Z,101626.41
2022-11-10T18:45:37.297Z,101624.81
2022-11-10T18:48:07.517Z,101634.44
2022-11-10T18:50:38.402Z,101632.09
2022-11-10T18:53:06.343Z,101634.75
2022-11-10T18:55:34.259Z,101640.41
2022-11-10T18:58:02.168Z,101631.28
2022-11-10T19:00:30.080Z,101641.25
2022-11-10T19:02:58.032Z,101640.28
2022-11-10T19:05:27.330Z,101644.41
2022-11-10T19:07:55.248Z,101640.91
2022-11-10T19:10:23.153Z,101649.63
2022-11-10T19:12:51.096Z,101643.91
2022-11-10T19:15:19.229Z,101644.75
2022-11-10T19:17:47.138Z,101643.06
2022-11-10T19:20:16.366Z,101649.00
2022-11-10T19:22:45.673Z,101639.63
2022-11-10T19:25:13.614Z,101646.19
2022-11-10T19:27:41.549Z,101651.00
2022-11-10T19:30:10.842Z,101641.72
2022-11-10T19:32:38.745Z,101656.22
2022-11-10T19:35:07.404Z,101655.59
2022-11-10T19:37:35.874Z,101659.06
2022-11-10T19:40:05.764Z,101655.72
2022-11-10T19:42:33.813Z,101660.22
2022-11-10T19:45:02.758Z,101666.22
2022-11-10T19:47:30.988Z,101657.56
2022-11-10T19:49:58.918Z,101648.38
2022-11-10T19:52:26.916Z,101659.50
2022-11-10T19:54:54.865Z,101669.25
2022-11-10T19:57:24.354Z,101663.25
2022-11-10T19:59:52.313Z,101672.69
2022-11-10T20:02:20.244Z,101680.38
2022-11-10T20:05:05.808Z,101675.91
2022-11-10T20:07:51.088Z,101675.97
2022-11-10T20:10:19.278Z,101684.56
2022-11-10T20:12:48.592Z,101675.91
2022-11-10T20:15:16.681Z,101678.56
2022-11-10T20:17:44.604Z,101671.84
2022-11-10T20:20:12.565Z,101675.56
2022-11-10T20:22:40.533Z,101676.81
2022-11-10T20:25:09.226Z,101666.47
2022-11-10T20:27:37.177Z,101680.06
2022-11-10T20:30:07.597Z,101671.53
2022-11-10T20:32:35.562Z,101665.56
2022-11-10T20:35:03.549Z,101673.28
2022-11-10T20:37:33.867Z,101666.88
2022-11-10T20:40:02.574Z,101668.69
2022-11-10T20:42:30.668Z,101672.69
2022-11-10T20:44:58.746Z,101672.59
2022-11-10T20:47:29.531Z,101666.66
2022-11-10T20:49:57.575Z,101678.84
2022-11-10T20:52:25.885Z,101681.63
2022-11-10T20:54:53.968Z,101687.91
2022-11-10T20:57:21.902Z,101690.50
2022-11-10T20:59:49.802Z,101690.63
2022-11-10T21:02:17.754Z,101690.50
2022-11-10T21:04:47.850Z,101702.38
2022-11-10T21:07:15.870Z,101702.31
2022-11-10T21:09:43.840Z,101693.81
2022-11-10T21:12:31.993Z,101692.50
2022-11-10T21:14:59.904Z,101691.91
2022-11-10T21:17:27.825Z,101698.91
2022-11-10T21:19:57.125Z,101697.56
2022-11-10T21:22:25.119Z,101699.50
2022-11-10T21:24:53.054Z,101699.63
2022-11-10T21:27:20.975Z,101707.41
2022-11-10T21:29:48.880Z,101704.72
2022-11-10T21:32:16.905Z,101704.72
2022-11-10T21:34:47.230Z,101702.22
2022-11-10T21:37:16.568Z,101699.03
2022-11-10T21:39:45.615Z,101698.19
2022-11-10T21:42:13.510Z,101701.53
2022-11-10T21:44:41.418Z,101699.25
2022-11-10T21:47:09.941Z,101705.88
2022-11-10T21:49:37.844Z,101712.41
2022-11-10T21:52:06.105Z,101703.50
2022-11-10T21:54:35.406Z,101707.13
2022-11-10T21:57:03.393Z,101710.47
2022-11-10T21:59:31.327Z,101719.84
2022-11-10T22:01:59.393Z,101721.38
2022-11-10T22:04:27.353Z,101718.69
2022-11-10T22:07:12.968Z,101722.78
2022-11-10T22:09:59.962Z,101724.56
2022-11-10T22:12:45.381Z,101724.56
2022-11-10T22:15:33.445Z,101723.28
2022-11-10T22:18:18.741Z,101726.47
2022-11-10T22:20:46.895Z,101721.28
2022-11-10T22:23:14.801Z,101718.81
2022-11-10T22:25:44.113Z,101720.75
2022-11-10T22:28:12.022Z,101723.91
2022-11-10T22:30:39.923Z,101721.94
2022-11-10T22:33:21.917Z,101729.38
2022-11-10T22:35:57.999Z,101729.88
2022-11-10T22:38:26.006Z,101730.75
2022-11-10T22:41:15.702Z,101739.44
2022-11-10T22:44:01.401Z,101732.91
2022-11-10T22:46:29.389Z,101736.41
2022-11-10T22:48:57.344Z,101743.66
2022-11-10T22:51:26.980Z,101747.19
2022-11-10T22:53:54.916Z,101748.38
2022-11-10T22:56:24.232Z,101746.75
2022-11-10T22:58:56.972Z,101748.03
2022-11-10T23:01:27.497Z,101740.16
2022-11-10T23:03:55.539Z,101745.38
2022-11-10T23:06:23.458Z,101742.75
2022-11-10T23:08:51.438Z,101740.25
2022-11-10T23:11:21.268Z,101740.47
2022-11-10T23:13:51.069Z,101743.69
2022-11-10T23:16:21.134Z,101738.44
2022-11-10T23:18:50.805Z,101734.16
2022-11-10T23:21:20.705Z,101746.22
2022-11-10T23:23:49.411Z,101748.16
2022-11-10T23:26:19.604Z,101752.66
2022-11-10T23:28:48.059Z,101750.16
2022-11-10T23:31:19.081Z,101755.56
2022-11-10T23:33:48.497Z,101755.78
2022-11-10T23:36:18.466Z,101759.28
2022-11-10T23:38:47.233Z,101752.44
2022-11-10T23:41:17.691Z,101757.09
2022-11-10T23:43:45.686Z,101758.34
2022-11-10T23:46:14.118Z,101760.16
2022-11-10T23:48:43.497Z,101745.88
2022-11-10T23:51:12.931Z,101748.97
2022-11-10T23:53:41.180Z,101754.63
2022-11-10T23:56:12.793Z,101750.25
2022-11-10T23:58:41.463Z,101747.78
